Time;durP1;ratioP1;P1;durP2;ratioP2;P2;SDS_P1;SDS_P2;PMS_P1;PMS_P2;Temp;Humidity;BMP_temperature;BMP_pressure;BME280_temperature;BME280_humidity;BME280_pressure;Samples;Min_cycle;Max_cycle;Signal;HPM_P1;HPM_P2
2023/01/01 00:01:29;;;;;;;;;;;21.80;40.00;;;;;;5036301;28;19973;-91
2023/01/01 00:03:56;;;;;;;;;;;21.90;40.20;;;;;;5035957;28;19925;-92
2023/01/01 00:06:23;;;;;;;;;;;21.80;39.50;;;;;;5040071;28;19928;-91
2023/01/01 00:10:26;;;;;;;;;;;21.90;39.40;;;;;;5019879;28;20151;-92
2023/01/01 00:11:34;;;;;;;;;;;21.90;39.80;;;;;;5039707;28;19963;-93
2023/01/01 00:13:59;;;;;;;;;;;21.80;38.90;;;;;;5036894;28;19986;-90
2023/01/01 00:16:27;;;;;;;;;;;21.90;39.70;;;;;;5049396;28;19999;-89
2023/01/01 00:18:53;;;;;;;;;;;22.00;39.50;;;;;;5036482;28;19920;-92
2023/01/01 00:21:19;;;;;;;;;;;21.80;38.60;;;;;;5028156;28;20442;-93
2023/01/01 00:23:44;;;;;;;;;;;22.00;39.40;;;;;;5047603;28;19925;-91
2023/01/01 00:26:11;;;;;;;;;;;22.00;39.50;;;;;;5052701;28;19917;-92
2023/01/01 00:28:37;;;;;;;;;;;22.00;38.90;;;;;;5047854;28;19921;-91
2023/01/01 00:31:06;;;;;;;;;;;22.10;38.80;;;;;;5066317;28;19927;-91
2023/01/01 00:33:32;;;;;;;;;;;22.10;38.80;;;;;;5056489;28;19964;-92
2023/01/01 00:36:04;;;;;;;;;;;22.10;38.70;;;;;;5044955;28;20352;-91
2023/01/01 00:38:31;;;;;;;;;;;22.10;38.50;;;;;;5048366;28;20429;-91
2023/01/01 00:40:57;;;;;;;;;;;22.10;38.50;;;;;;5044383;28;19931;-91
2023/01/01 00:43:22;;;;;;;;;;;22.20;38.70;;;;;;5040499;28;19920;-92
2023/01/01 00:45:51;;;;;;;;;;;22.20;38.70;;;;;;5047948;28;19921;-92
2023/01/01 00:48:18;;;;;;;;;;;22.30;39.00;;;;;;5044759;28;20271;-89
2023/01/01 00:53:15;;;;;;;;;;;22.30;39.40;;;;;;5064959;22;20028;-92
2023/01/01 00:58:15;;;;;;;;;;;22.30;38.70;;;;;;5051330;23;19936;-92
2023/01/01 01:00:41;;;;;;;;;;;22.30;38.80;;;;;;5046057;28;20690;-92
2023/01/01 01:03:06;;;;;;;;;;;22.30;38.40;;;;;;5028661;28;19925;-90
2023/01/01 01:05:32;;;;;;;;;;;22.30;38.30;;;;;;5025710;28;19944;-92
2023/01/01 01:07:58;;;;;;;;;;;22.20;38.10;;;;;;5017347;28;19917;-89
2023/01/01 01:10:24;;;;;;;;;;;22.30;38.30;;;;;;5046021;28;20311;-92
2023/01/01 01:12:50;;;;;;;;;;;22.30;38.60;;;;;;5037881;28;20243;-91
2023/01/01 01:15:16;;;;;;;;;;;22.20;38.20;;;;;;5027907;28;20244;-90
2023/01/01 01:17:41;;;;;;;;;;;22.20;38.60;;;;;;5010741;28;19930;-90
2023/01/01 01:20:07;;;;;;;;;;;22.20;39.00;;;;;;5017283;28;19917;-91
2023/01/01 01:22:33;;;;;;;;;;;22.20;39.70;;;;;;5045748;28;19921;-90
2023/01/01 01:24:59;;;;;;;;;;;22.00;39.00;;;;;;5047018;28;19917;-92
2023/01/01 01:27:25;;;;;;;;;;;22.10;39.40;;;;;;5030703;28;19921;-91
2023/01/01 01:29:50;;;;;;;;;;;22.00;39.60;;;;;;5030219;28;19921;-90
2023/01/01 01:32:15;;;;;;;;;;;22.10;39.90;;;;;;5044957;28;19920;-93
2023/01/01 01:34:41;;;;;;;;;;;22.00;39.10;;;;;;5034417;28;19960;-92
2023/01/01 01:37:06;;;;;;;;;;;21.80;38.50;;;;;;5031584;28;19925;-91
2023/01/01 01:39:32;;;;;;;;;;;22.00;38.60;;;;;;5031502;28;19921;-93
2023/01/01 01:41:57;;;;;;;;;;;22.10;39.30;;;;;;5031695;28;19921;-93
2023/01/01 01:45:01;;;;;;;;;;;22.10;39.10;;;;;;5029010;28;19929;-90
2023/01/01 01:47:27;;;;;;;;;;;22.10;38.80;;;;;;4996631;28;19922;-93
2023/01/01 01:49:54;;;;;;;;;;;22.10;38.70;;;;;;4969265;28;19924;-91
2023/01/01 01:52:20;;;;;;;;;;;22.00;38.10;;;;;;5006529;28;20732;-91
2023/01/01 01:54:46;;;;;;;;;;;22.10;38.60;;;;;;5023265;28;19917;-92
2023/01/01 01:57:11;;;;;;;;;;;22.00;38.10;;;;;;5031508;28;19935;-90
2023/01/01 01:59:39;;;;;;;;;;;22.00;38.10;;;;;;5037937;28;19923;-91
2023/01/01 02:02:13;;;;;;;;;;;22.00;38.30;;;;;;5026753;28;19917;-93
2023/01/01 02:04:39;;;;;;;;;;;21.90;37.90;;;;;;5034685;28;19921;-91
2023/01/01 02:07:04;;;;;;;;;;;21.80;37.70;;;;;;5025104;28;20327;-91
2023/01/01 02:09:30;;;;;;;;;;;21.90;37.80;;;;;;5024957;28;19928;-91
2023/01/01 02:11:57;;;;;;;;;;;21.90;38.00;;;;;;5032667;28;20300;-90
2023/01/01 02:14:23;;;;;;;;;;;21.80;37.90;;;;;;5034799;28;19921;-91
2023/01/01 02:16:51;;;;;;;;;;;21.80;38.60;;;;;;5035041;28;19925;-90
2023/01/01 02:19:39;;;;;;;;;;;21.80;38.40;;;;;;5031448;28;19925;-91
2023/01/01 02:22:15;;;;;;;;;;;21.70;38.00;;;;;;5033791;28;19924;-91
2023/01/01 02:24:46;;;;;;;;;;;21.60;38.10;;;;;;5034604;28;19928;-91
2023/01/01 02:27:35;;;;;;;;;;;21.60;38.30;;;;;;5036991;28;19952;-90
2023/01/01 02:30:05;;;;;;;;;;;21.50;37.90;;;;;;5020885;28;19921;-91
2023/01/01 02:32:36;;;;;;;;;;;21.60;38.10;;;;;;5033712;28;20004;-91
2023/01/01 02:37:51;;;;;;;;;;;21.60;38.10;;;;;;5035943;28;20122;-90
2023/01/01 02:40:20;;;;;;;;;;;21.50;38.00;;;;;;5035084;28;20685;-92
2023/01/01 02:42:49;;;;;;;;;;;21.60;38.10;;;;;;5030917;28;19917;-92
2023/01/01 02:45:15;;;;;;;;;;;21.60;38.00;;;;;;5033032;28;19924;-90
2023/01/01 02:47:40;;;;;;;;;;;21.40;37.10;;;;;;5026790;28;19920;-91
2023/01/01 02:50:17;;;;;;;;;;;21.50;37.50;;;;;;5034642;28;19921;-92
2023/01/01 02:52:54;;;;;;;;;;;21.40;37.10;;;;;;5038743;28;20364;-91
2023/01/01 02:55:25;;;;;;;;;;;21.50;37.10;;;;;;5035310;28;19921;-92
2023/01/01 02:57:55;;;;;;;;;;;21.30;36.70;;;;;;5047764;28;19929;-92
2023/01/01 03:00:28;;;;;;;;;;;21.40;36.80;;;;;;5032034;28;20545;-91
2023/01/01 03:02:56;;;;;;;;;;;21.30;36.50;;;;;;5032605;28;19921;-93
2023/01/01 03:05:28;;;;;;;;;;;21.30;36.20;;;;;;5035509;28;19921;-89
2023/01/01 03:08:01;;;;;;;;;;;21.40;36.20;;;;;;5035276;28;20424;-91
2023/01/01 03:10:54;;;;;;;;;;;21.30;36.10;;;;;;5032604;28;19921;-91
2023/01/01 03:13:25;;;;;;;;;;;21.40;36.20;;;;;;5034727;28;20015;-90
2023/01/01 03:15:58;;;;;;;;;;;21.20;35.60;;;;;;5022512;28;22406;-90
2023/01/01 03:18:40;;;;;;;;;;;21.30;36.20;;;;;;5028951;28;19917;-91
2023/01/01 03:21:08;;;;;;;;;;;21.20;35.80;;;;;;5029808;28;20315;-91
2023/01/01 03:23:35;;;;;;;;;;;21.30;36.20;;;;;;5023272;28;19925;-91
2023/01/01 03:26:03;;;;;;;;;;;21.30;35.80;;;;;;5013767;28;19921;-90
2023/01/01 03:28:33;;;;;;;;;;;21.30;35.70;;;;;;5030259;28;19980;-92
2023/01/01 03:30:59;;;;;;;;;;;21.30;35.90;;;;;;5032101;28;19956;-92
2023/01/01 03:33:29;;;;;;;;;;;21.30;35.90;;;;;;5030858;28;19944;-92
2023/01/01 03:35:58;;;;;;;;;;;21.30;35.80;;;;;;5031036;28;20360;-91
2023/01/01 03:38:30;;;;;;;;;;;21.30;35.90;;;;;;5029765;28;19927;-93
2023/01/01 03:41:16;;;;;;;;;;;21.30;35.70;;;;;;5021253;28;20421;-90
2023/01/01 03:43:45;;;;;;;;;;;21.30;35.80;;;;;;5019561;28;19924;-90
2023/01/01 03:46:12;;;;;;;;;;;21.20;35.70;;;;;;5034941;28;20184;-90
2023/01/01 03:48:55;;;;;;;;;;;21.30;35.60;;;;;;5029244;28;20383;-90
2023/01/01 03:51:36;;;;;;;;;;;21.30;36.20;;;;;;5034447;28;19967;-91
2023/01/01 03:54:06;;;;;;;;;;;21.20;36.00;;;;;;5050426;28;20016;-92
2023/01/01 03:56:49;;;;;;;;;;;;;;;;;;;;;
2023/01/01 03:59:22;;;;;;;;;;;21.30;36.30;;;;;;5047411;28;19973;-89
2023/01/01 04:01:54;;;;;;;;;;;21.30;36.40;;;;;;5042852;28;19900;-89
2023/01/01 04:04:19;;;;;;;;;;;21.20;36.20;;;;;;5047057;28;19920;-92
2023/01/01 04:06:45;;;;;;;;;;;21.20;36.20;;;;;;5038999;28;20364;-91
2023/01/01 04:09:14;;;;;;;;;;;21.10;36.00;;;;;;5043220;28;19913;-91
2023/01/01 04:14:33;;;;;;;;;;;21.00;36.40;;;;;;5041450;28;19924;-90
2023/01/01 04:17:03;;;;;;;;;;;21.00;36.40;;;;;;5039213;28;20372;-90
2023/01/01 04:19:29;;;;;;;;;;;20.90;36.70;;;;;;5042383;28;19897;-91
2023/01/01 04:21:57;;;;;;;;;;;21.00;36.70;;;;;;5041439;28;19963;-92
2023/01/01 04:24:22;;;;;;;;;;;21.00;36.80;;;;;;5040883;28;19909;-90
2023/01/01 04:26:49;;;;;;;;;;;21.00;37.20;;;;;;5039331;28;19929;-91
2023/01/01 04:29:18;;;;;;;;;;;21.00;37.20;;;;;;5037551;28;19958;-91
2023/01/01 04:31:43;;;;;;;;;;;21.00;36.90;;;;;;5040443;28;19913;-90
2023/01/01 04:34:09;;;;;;;;;;;21.00;36.80;;;;;;5038387;28;19920;-90
2023/01/01 04:36:35;;;;;;;;;;;21.00;36.70;;;;;;5039323;28;19917;-92
2023/01/01 04:39:00;;;;;;;;;;;21.00;36.70;;;;;;5040336;28;19944;-90
2023/01/01 04:41:28;;;;;;;;;;;21.10;36.80;;;;;;5038808;28;19913;-92
2023/01/01 04:43:54;;;;;;;;;;;21.20;36.90;;;;;;5040277;28;19955;-90
2023/01/01 04:46:20;;;;;;;;;;;21.10;36.90;;;;;;5038652;28;19893;-89
2023/01/01 04:48:46;;;;;;;;;;;21.20;36.60;;;;;;5040231;28;20051;-92
2023/01/01 04:51:15;;;;;;;;;;;21.20;36.70;;;;;;5039849;28;19996;-91
2023/01/01 04:53:41;;;;;;;;;;;21.20;36.60;;;;;;5038200;28;19914;-90
2023/01/01 04:56:08;;;;;;;;;;;21.10;36.50;;;;;;5038035;28;19932;-91
2023/01/01 04:58:34;;;;;;;;;;;21.10;36.70;;;;;;5034816;28;20365;-92
2023/01/01 05:00:59;;;;;;;;;;;21.20;36.40;;;;;;5032305;28;19909;-91
2023/01/01 05:03:25;;;;;;;;;;;21.00;36.50;;;;;;5034098;28;19965;-92
2023/01/01 05:05:59;;;;;;;;;;;21.10;36.70;;;;;;5033671;28;19920;-92
2023/01/01 05:08:26;;;;;;;;;;;21.10;36.90;;;;;;5030464;28;19917;-92
2023/01/01 05:10:51;;;;;;;;;;;21.10;36.80;;;;;;5035178;28;19955;-90
2023/01/01 05:13:17;;;;;;;;;;;21.00;36.50;;;;;;5032663;28;20368;-92
2023/01/01 05:15:42;;;;;;;;;;;21.00;36.80;;;;;;5031273;28;20447;-90
2023/01/01 05:18:08;;;;;;;;;;;21.00;36.80;;;;;;5030965;28;19971;-91
2023/01/01 05:20:33;;;;;;;;;;;21.10;36.90;;;;;;5032660;28;19917;-91
2023/01/01 05:22:59;;;;;;;;;;;21.20;37.20;;;;;;5033112;28;19928;-92
2023/01/01 05:25:24;;;;;;;;;;;21.10;37.00;;;;;;5030925;28;19916;-91
2023/01/01 05:27:50;;;;;;;;;;;21.20;36.80;;;;;;5029996;28;20428;-91
2023/01/01 05:30:15;;;;;;;;;;;21.20;36.50;;;;;;5031346;28;19996;-92
2023/01/01 05:32:41;;;;;;;;;;;21.20;36.60;;;;;;5031766;28;19917;-91
2023/01/01 05:35:07;;;;;;;;;;;21.20;36.70;;;;;;5031440;28;20260;-90
2023/01/01 05:37:32;;;;;;;;;;;21.20;36.90;;;;;;5029690;28;19964;-92
2023/01/01 05:39:58;;;;;;;;;;;21.20;36.70;;;;;;5031139;28;20304;-90
2023/01/01 05:42:23;;;;;;;;;;;21.20;36.70;;;;;;5030272;28;19928;-91
2023/01/01 05:44:49;;;;;;;;;;;21.20;36.70;;;;;;5031138;28;19920;-89
2023/01/01 05:47:17;;;;;;;;;;;21.10;36.70;;;;;;5031826;28;19917;-90
2023/01/01 05:49:43;;;;;;;;;;;21.00;36.80;;;;;;5030579;28;19955;-92
2023/01/01 05:52:08;;;;;;;;;;;21.00;36.90;;;;;;5030756;28;19921;-91
2023/01/01 05:54:33;;;;;;;;;;;21.00;37.00;;;;;;5030760;28;19948;-90
2023/01/01 05:56:59;;;;;;;;;;;21.00;37.10;;;;;;5029110;28;20076;-92
2023/01/01 05:59:24;;;;;;;;;;;20.90;37.10;;;;;;5031407;28;19960;-92
2023/01/01 06:01:50;;;;;;;;;;;20.80;37.30;;;;;;5029638;28;20265;-90
2023/01/01 06:04:15;;;;;;;;;;;20.80;37.40;;;;;;5030439;28;19920;-92
2023/01/01 06:06:41;;;;;;;;;;;20.70;37.50;;;;;;5031218;28;19909;-92
2023/01/01 06:09:06;;;;;;;;;;;20.70;37.60;;;;;;5032053;28;19958;-90
2023/01/01 06:11:32;;;;;;;;;;;20.70;37.70;;;;;;5031534;28;20462;-91
2023/01/01 06:13:58;;;;;;;;;;;20.70;37.70;;;;;;5031234;28;19919;-91
2023/01/01 06:16:25;;;;;;;;;;;20.70;37.80;;;;;;5032600;28;19925;-90
2023/01/01 06:18:50;;;;;;;;;;;20.60;37.70;;;;;;5030964;28;20311;-89
2023/01/01 06:21:17;;;;;;;;;;;20.50;37.60;;;;;;5029794;28;19913;-92
2023/01/01 06:23:42;;;;;;;;;;;20.50;37.80;;;;;;5033148;28;19920;-92
2023/01/01 06:26:15;;;;;;;;;;;20.40;37.80;;;;;;5030728;28;19917;-91
2023/01/01 06:28:41;;;;;;;;;;;20.50;37.90;;;;;;5033107;28;19920;-90
2023/01/01 06:31:08;;;;;;;;;;;20.40;37.80;;;;;;5034137;28;19913;-91
2023/01/01 06:33:33;;;;;;;;;;;20.40;38.10;;;;;;5030928;28;19925;-90
2023/01/01 06:36:00;;;;;;;;;;;20.40;37.90;;;;;;5031183;28;19930;-93
2023/01/01 06:38:26;;;;;;;;;;;20.30;38.00;;;;;;5032299;28;19963;-90
2023/01/01 06:40:55;;;;;;;;;;;20.30;38.20;;;;;;5031035;28;19917;-91
2023/01/01 06:43:21;;;;;;;;;;;20.30;38.30;;;;;;5030099;28;19960;-91
2023/01/01 06:45:46;;;;;;;;;;;20.20;38.40;;;;;;5030579;28;20284;-91
2023/01/01 06:48:12;;;;;;;;;;;20.30;38.40;;;;;;5029794;28;20261;-92
2023/01/01 06:50:37;;;;;;;;;;;20.40;38.60;;;;;;5033506;28;20427;-91
2023/01/01 06:53:02;;;;;;;;;;;20.40;38.90;;;;;;5033325;28;19913;-89
2023/01/01 06:55:28;;;;;;;;;;;20.30;39.00;;;;;;5036310;28;19923;-89
2023/01/01 06:57:53;;;;;;;;;;;20.30;39.10;;;;;;5033652;28;19929;-91
2023/01/01 07:00:19;;;;;;;;;;;20.40;38.90;;;;;;5035426;28;19935;-90
2023/01/01 07:02:46;;;;;;;;;;;20.40;38.90;;;;;;5034896;28;19987;-91
2023/01/01 07:05:12;;;;;;;;;;;20.50;39.00;;;;;;5034620;28;19909;-90
2023/01/01 07:07:37;;;;;;;;;;;20.50;38.90;;;;;;5033389;28;20284;-92
2023/01/01 07:10:03;;;;;;;;;;;20.40;38.70;;;;;;5032589;28;20058;-89
2023/01/01 07:12:28;;;;;;;;;;;20.50;38.70;;;;;;5035597;28;20283;-92
2023/01/01 07:14:54;;;;;;;;;;;20.60;38.70;;;;;;5034255;28;19920;-90
2023/01/01 07:17:19;;;;;;;;;;;20.50;38.50;;;;;;5035141;28;19925;-91
2023/01/01 07:19:45;;;;;;;;;;;20.60;38.40;;;;;;5032759;28;19917;-91
2023/01/01 07:22:10;;;;;;;;;;;20.70;38.20;;;;;;5032166;28;20495;-91
2023/01/01 07:24:37;;;;;;;;;;;20.70;38.40;;;;;;5034159;28;19992;-90
2023/01/01 07:27:03;;;;;;;;;;;20.70;38.20;;;;;;5033698;28;20295;-91
2023/01/01 07:29:28;;;;;;;;;;;20.70;38.00;;;;;;5033283;28;19913;-91
2023/01/01 07:31:54;;;;;;;;;;;20.80;38.00;;;;;;5033446;28;20023;-92
2023/01/01 07:34:21;;;;;;;;;;;20.80;37.90;;;;;;5033584;28;19921;-90
2023/01/01 07:36:47;;;;;;;;;;;20.80;37.90;;;;;;5033473;28;19988;-90
2023/01/01 07:39:12;;;;;;;;;;;20.70;38.00;;;;;;5034622;28;20344;-91
2023/01/01 07:41:38;;;;;;;;;;;20.80;38.00;;;;;;5033137;28;19909;-90
2023/01/01 07:44:03;;;;;;;;;;;20.80;38.00;;;;;;5033131;28;19918;-91
2023/01/01 07:46:29;;;;;;;;;;;20.80;38.00;;;;;;5035154;28;20348;-90
2023/01/01 07:48:55;;;;;;;;;;;20.80;38.00;;;;;;5034119;28;19915;-92
2023/01/01 07:51:20;;;;;;;;;;;20.80;38.00;;;;;;5034157;28;19924;-92
2023/01/01 07:53:46;;;;;;;;;;;20.80;37.90;;;;;;5033806;28;20003;-93
2023/01/01 07:56:12;;;;;;;;;;;20.90;38.10;;;;;;5033269;28;19948;-91
2023/01/01 07:58:38;;;;;;;;;;;20.80;39.00;;;;;;5033152;28;19928;-90
2023/01/01 08:01:03;;;;;;;;;;;20.60;40.50;;;;;;5033560;28;19913;-92
2023/01/01 08:03:29;;;;;;;;;;;20.30;42.10;;;;;;5031575;28;19924;-91
2023/01/01 08:05:54;;;;;;;;;;;20.10;43.20;;;;;;5033229;28;19909;-91
2023/01/01 08:08:20;;;;;;;;;;;19.90;44.90;;;;;;5032017;28;19921;-90
2023/01/01 08:10:45;;;;;;;;;;;19.70;46.50;;;;;;5035115;28;20364;-91
2023/01/01 08:13:10;;;;;;;;;;;19.40;47.40;;;;;;5031329;28;20008;-91
2023/01/01 08:15:36;;;;;;;;;;;19.30;48.50;;;;;;5032198;28;20011;-90
2023/01/01 08:18:03;;;;;;;;;;;19.20;49.50;;;;;;5031850;28;19925;-90
2023/01/01 08:20:29;;;;;;;;;;;19.00;50.40;;;;;;5031178;28;19910;-93
2023/01/01 08:22:55;;;;;;;;;;;18.90;51.50;;;;;;5032587;28;20387;-91
2023/01/01 08:25:20;;;;;;;;;;;18.70;52.90;;;;;;5031136;28;19913;-90
2023/01/01 08:27:46;;;;;;;;;;;18.70;54.10;;;;;;5035789;28;19924;-91
2023/01/01 08:30:12;;;;;;;;;;;18.70;55.00;;;;;;5033283;28;20390;-91
2023/01/01 08:32:38;;;;;;;;;;;18.60;55.40;;;;;;5032500;28;20010;-91
2023/01/01 08:35:03;;;;;;;;;;;18.70;55.50;;;;;;5031570;28;20391;-90
2023/01/01 08:37:29;;;;;;;;;;;18.70;55.90;;;;;;5032060;28;19925;-90
2023/01/01 08:39:54;;;;;;;;;;;18.60;56.20;;;;;;5032336;28;19992;-90
2023/01/01 08:42:20;;;;;;;;;;;18.50;56.40;;;;;;5033036;28;20012;-89
2023/01/01 08:44:45;;;;;;;;;;;18.50;57.20;;;;;;5033595;28;20287;-89
2023/01/01 08:47:29;;;;;;;;;;;18.40;57.30;;;;;;5031776;28;19976;-90
2023/01/01 08:49:55;;;;;;;;;;;18.40;57.50;;;;;;5031233;28;19913;-91
2023/01/01 08:52:20;;;;;;;;;;;18.40;57.60;;;;;;5032037;28;20355;-92
2023/01/01 08:54:46;;;;;;;;;;;18.30;58.10;;;;;;5032454;28;20342;-92
2023/01/01 08:57:11;;;;;;;;;;;18.30;58.40;;;;;;5032258;28;19932;-90
2023/01/01 08:59:37;;;;;;;;;;;18.20;58.80;;;;;;5031353;28;19913;-88
2023/01/01 09:02:03;;;;;;;;;;;18.10;58.90;;;;;;5030243;28;19922;-91
2023/01/01 09:04:29;;;;;;;;;;;17.90;59.40;;;;;;5031934;28;19910;-91
2023/01/01 09:06:54;;;;;;;;;;;17.80;60.00;;;;;;5030703;28;19928;-89
2023/01/01 09:09:20;;;;;;;;;;;17.90;60.70;;;;;;5033251;28;19913;-90
2023/01/01 09:11:49;;;;;;;;;;;17.90;61.20;;;;;;5032328;28;20056;-89
2023/01/01 09:14:15;;;;;;;;;;;17.90;61.40;;;;;;5032122;28;19916;-92
2023/01/01 09:16:40;;;;;;;;;;;17.90;61.80;;;;;;5030850;28;19917;-89
2023/01/01 09:19:06;;;;;;;;;;;17.80;62.10;;;;;;5029947;28;19909;-91
2023/01/01 09:21:31;;;;;;;;;;;17.80;62.20;;;;;;5030806;28;19971;-91
2023/01/01 09:23:57;;;;;;;;;;;17.80;62.50;;;;;;5018009;28;19985;-90
2023/01/01 09:26:22;;;;;;;;;;;17.80;62.60;;;;;;5013400;28;19916;-90
2023/01/01 09:28:47;;;;;;;;;;;17.70;63.10;;;;;;5023229;28;19983;-92
2023/01/01 09:31:13;;;;;;;;;;;17.80;63.00;;;;;;5029418;28;19971;-91
2023/01/01 09:33:39;;;;;;;;;;;17.70;63.30;;;;;;5030293;28;19967;-91
2023/01/01 09:36:26;;;;;;;;;;;17.70;63.50;;;;;;5030326;28;19992;-88
2023/01/01 09:38:52;;;;;;;;;;;17.70;63.60;;;;;;5030146;28;19925;-90
2023/01/01 09:41:36;;;;;;;;;;;17.70;63.90;;;;;;5030307;28;19955;-91
2023/01/01 09:44:08;;;;;;;;;;;17.70;63.90;;;;;;5031846;28;20576;-88
2023/01/01 09:46:35;;;;;;;;;;;17.70;64.10;;;;;;5029643;28;19987;-92
2023/01/01 09:49:08;;;;;;;;;;;17.70;64.10;;;;;;5032141;28;19967;-91
2023/01/01 09:51:34;;;;;;;;;;;17.70;64.20;;;;;;5030621;28;20481;-92
2023/01/01 09:54:04;;;;;;;;;;;17.60;64.10;;;;;;5029376;28;20247;-92
2023/01/01 09:56:30;;;;;;;;;;;17.60;64.20;;;;;;5031783;28;19975;-91
2023/01/01 09:58:58;;;;;;;;;;;17.60;64.20;;;;;;5030863;28;19913;-90
2023/01/01 10:01:38;;;;;;;;;;;17.50;64.20;;;;;;5034282;28;20003;-91
2023/01/01 10:04:04;;;;;;;;;;;17.50;64.30;;;;;;5011586;28;19928;-91
2023/01/01 10:06:31;;;;;;;;;;;17.50;64.20;;;;;;5009250;28;20463;-90
2023/01/01 10:09:03;;;;;;;;;;;17.40;64.30;;;;;;5012726;28;19921;-93
2023/01/01 10:11:34;;;;;;;;;;;17.40;64.30;;;;;;5010888;28;19914;-89
2023/01/01 10:14:00;;;;;;;;;;;17.40;64.20;;;;;;5011801;28;20364;-89
2023/01/01 10:16:35;;;;;;;;;;;17.30;64.40;;;;;;5011215;28;20652;-92
2023/01/01 10:19:15;;;;;;;;;;;17.30;64.30;;;;;;5022509;28;19924;-92
2023/01/01 10:21:42;;;;;;;;;;;17.30;64.20;;;;;;5018022;28;20406;-90
2023/01/01 10:24:27;;;;;;;;;;;17.20;64.00;;;;;;5021225;28;19909;-92
2023/01/01 10:26:52;;;;;;;;;;;17.20;64.10;;;;;;5024674;28;20376;-93
2023/01/01 10:29:23;;;;;;;;;;;17.20;64.20;;;;;;5023833;28;20384;-89
2023/01/01 10:31:49;;;;;;;;;;;17.20;64.40;;;;;;5042424;28;19922;-92
2023/01/01 10:34:19;;;;;;;;;;;17.10;64.30;;;;;;5028654;28;19921;-92
2023/01/01 10:36:45;;;;;;;;;;;17.10;64.30;;;;;;5030500;28;19917;-91
2023/01/01 10:39:17;;;;;;;;;;;17.20;64.60;;;;;;5028519;28;21806;-91
2023/01/01 10:41:43;;;;;;;;;;;17.20;64.50;;;;;;5018243;28;19925;-92
2023/01/01 10:44:10;;;;;;;;;;;17.30;64.50;;;;;;5015793;28;19913;-90
2023/01/01 10:46:39;;;;;;;;;;;17.30;64.40;;;;;;5029419;28;19987;-90
2023/01/01 10:49:11;;;;;;;;;;;17.40;64.60;;;;;;5029772;28;19913;-91
2023/01/01 10:51:40;;;;;;;;;;;17.50;64.60;;;;;;5033606;28;20271;-89
2023/01/01 10:54:17;;;;;;;;;;;17.50;64.60;;;;;;5031431;28;19917;-88
2023/01/01 10:56:45;;;;;;;;;;;17.50;64.60;;;;;;5030503;28;19936;-91
2023/01/01 10:59:29;;;;;;;;;;;17.70;64.60;;;;;;5030864;28;19913;-92
2023/01/01 11:02:12;;;;;;;;;;;17.70;64.60;;;;;;5029023;28;19917;-92
2023/01/01 11:04:37;;;;;;;;;;;17.70;64.50;;;;;;5023604;28;20016;-92
2023/01/01 11:07:05;;;;;;;;;;;17.80;64.40;;;;;;5029541;28;20419;-94
2023/01/01 11:09:30;;;;;;;;;;;17.80;64.40;;;;;;5028569;28;19995;-90
2023/01/01 11:12:00;;;;;;;;;;;17.80;64.30;;;;;;5028907;28;20405;-90
2023/01/01 11:14:27;;;;;;;;;;;17.90;64.30;;;;;;5030971;28;19917;-90
2023/01/01 11:16:53;;;;;;;;;;;17.90;64.20;;;;;;5029335;28;19937;-88
2023/01/01 11:19:23;;;;;;;;;;;17.90;64.20;;;;;;5028817;28;19917;-92
2023/01/01 11:21:49;;;;;;;;;;;17.90;64.10;;;;;;5020790;28;19925;-92
2023/01/01 11:24:14;;;;;;;;;;;18.00;64.20;;;;;;5020492;28;19924;-90
2023/01/01 11:26:39;;;;;;;;;;;18.00;64.20;;;;;;5024158;28;19922;-91
2023/01/01 11:29:14;;;;;;;;;;;18.10;64.10;;;;;;5012264;28;19917;-91
2023/01/01 11:31:39;;;;;;;;;;;18.10;64.10;;;;;;5026292;28;19917;-93
2023/01/01 11:34:25;;;;;;;;;;;18.10;64.00;;;;;;5028302;28;19917;-92
2023/01/01 11:36:50;;;;;;;;;;;18.20;64.10;;;;;;5028584;28;19925;-89
2023/01/01 11:39:28;;;;;;;;;;;18.20;64.10;;;;;;5022023;28;19921;-91
2023/01/01 11:41:55;;;;;;;;;;;18.30;64.10;;;;;;5028342;28;19921;-91
2023/01/01 11:44:33;;;;;;;;;;;18.30;64.10;;;;;;5027894;28;19921;-90
2023/01/01 11:46:58;;;;;;;;;;;18.30;64.10;;;;;;5030408;28;19966;-91
2023/01/01 11:49:25;;;;;;;;;;;18.40;64.10;;;;;;5029399;28;20007;-91
2023/01/01 11:51:51;;;;;;;;;;;18.50;64.10;;;;;;5019119;28;19939;-93
2023/01/01 11:54:21;;;;;;;;;;;18.50;64.10;;;;;;5027686;28;19921;-91
2023/01/01 11:56:48;;;;;;;;;;;18.60;64.10;;;;;;5030759;28;19925;-90
2023/01/01 11:59:15;;;;;;;;;;;18.60;64.10;;;;;;5029418;28;19928;-92
2023/01/01 12:01:52;;;;;;;;;;;18.60;64.10;;;;;;5019361;28;19921;-90
2023/01/01 12:04:21;;;;;;;;;;;18.60;64.20;;;;;;5029711;28;20030;-90
2023/01/01 12:06:46;;;;;;;;;;;18.70;64.30;;;;;;5027435;28;19917;-91
2023/01/01 12:09:31;;;;;;;;;;;18.70;64.40;;;;;;5016985;28;19996;-90
2023/01/01 12:12:01;;;;;;;;;;;18.80;64.40;;;;;;5011067;28;20296;-90
2023/01/01 12:14:32;;;;;;;;;;;18.90;64.40;;;;;;5009479;28;19921;-90
2023/01/01 12:17:01;;;;;;;;;;;18.90;64.30;;;;;;5029492;28;19921;-92
2023/01/01 12:19:45;;;;;;;;;;;19.00;64.30;;;;;;5027574;28;20371;-91
2023/01/01 12:22:17;;;;;;;;;;;19.00;64.20;;;;;;5030880;28;19913;-93
2023/01/01 12:24:44;;;;;;;;;;;19.00;64.30;;;;;;5027140;28;20352;-91
2023/01/01 12:27:35;;;;;;;;;;;19.00;64.20;;;;;;5031684;28;19924;-91
2023/01/01 12:30:13;;;;;;;;;;;19.00;64.20;;;;;;5028119;28;19928;-91
2023/01/01 12:32:49;;;;;;;;;;;18.90;64.10;;;;;;5029098;28;19939;-94
2023/01/01 12:35:33;;;;;;;;;;;18.90;64.10;;;;;;5022171;28;19944;-88
2023/01/01 12:38:06;;;;;;;;;;;18.90;64.10;;;;;;5028080;28;19929;-92
2023/01/01 12:40:36;;;;;;;;;;;18.80;64.30;;;;;;5028966;28;19917;-90
2023/01/01 12:43:04;;;;;;;;;;;18.90;64.20;;;;;;5022596;28;19995;-90
2023/01/01 12:45:32;;;;;;;;;;;18.80;64.30;;;;;;5024284;28;19959;-91
2023/01/01 12:47:58;;;;;;;;;;;18.90;64.50;;;;;;5027026;28;19992;-92
2023/01/01 12:50:36;;;;;;;;;;;18.80;64.70;;;;;;5019328;28;19921;-92
2023/01/01 12:53:01;;;;;;;;;;;18.90;64.50;;;;;;5020043;28;20387;-89
2023/01/01 12:55:45;;;;;;;;;;;18.80;64.50;;;;;;5021251;28;19917;-90
2023/01/01 12:58:15;;;;;;;;;;;18.90;64.50;;;;;;5027452;28;19925;-89
2023/01/01 13:00:50;;;;;;;;;;;18.90;64.60;;;;;;5016578;28;21692;-90
2023/01/01 13:03:25;;;;;;;;;;;19.00;64.90;;;;;;5012475;28;20007;-92
2023/01/01 13:05:52;;;;;;;;;;;19.00;64.70;;;;;;5023229;28;20467;-91
2023/01/01 13:08:18;;;;;;;;;;;19.00;64.60;;;;;;5010081;28;19949;-90
2023/01/01 13:10:45;;;;;;;;;;;19.00;64.70;;;;;;5025602;28;20077;-90
2023/01/01 13:13:11;;;;;;;;;;;19.10;64.90;;;;;;5026220;28;19955;-91
2023/01/01 13:15:37;;;;;;;;;;;19.10;64.80;;;;;;5023355;28;19925;-90
2023/01/01 13:18:04;;;;;;;;;;;19.20;64.90;;;;;;5029951;28;20031;-90
2023/01/01 13:20:39;;;;;;;;;;;19.20;64.70;;;;;;5028281;28;19921;-93
2023/01/01 13:23:05;;;;;;;;;;;19.20;64.70;;;;;;5007049;28;19918;-89
2023/01/01 13:25:33;;;;;;;;;;;19.20;64.80;;;;;;5023591;28;19924;-94
2023/01/01 13:28:02;;;;;;;;;;;19.20;64.60;;;;;;5024844;28;19956;-92
2023/01/01 13:30:34;;;;;;;;;;;19.20;64.60;;;;;;5027827;28;19925;-91
2023/01/01 13:33:30;;;;;;;;;;;19.20;64.60;;;;;;5025787;28;20000;-91
2023/01/01 13:36:19;;;;;;;;;;;19.20;64.40;;;;;;5001170;28;19921;-93
2023/01/01 13:38:45;;;;;;;;;;;19.20;64.60;;;;;;5014824;28;19925;-90
2023/01/01 13:41:29;;;;;;;;;;;19.20;64.60;;;;;;5026204;28;19924;-91
2023/01/01 13:43:57;;;;;;;;;;;19.30;64.70;;;;;;5027413;28;20119;-90
2023/01/01 13:46:33;;;;;;;;;;;19.30;64.60;;;;;;5029134;28;19917;-90
2023/01/01 13:49:11;;;;;;;;;;;19.30;64.50;;;;;;5026383;28;19927;-92
2023/01/01 13:51:55;;;;;;;;;;;19.30;64.50;;;;;;5028972;28;19917;-92
2023/01/01 13:54:40;;;;;;;;;;;19.30;64.50;;;;;;5027752;28;19940;-91
2023/01/01 13:57:24;;;;;;;;;;;19.30;64.40;;;;;;5027326;28;20020;-92
2023/01/01 14:00:04;;;;;;;;;;;19.30;64.40;;;;;;5026325;28;19917;-92
2023/01/01 14:02:34;;;;;;;;;;;19.20;64.30;;;;;;5019354;28;20639;-92
2023/01/01 14:05:04;;;;;;;;;;;19.20;64.30;;;;;;5028064;28;20453;-89
2023/01/01 14:07:32;;;;;;;;;;;19.20;63.90;;;;;;5029027;28;19921;-91
2023/01/01 14:10:15;;;;;;;;;;;19.10;64.00;;;;;;5027807;28;19917;-93
2023/01/01 14:12:40;;;;;;;;;;;19.10;63.90;;;;;;5026524;28;19924;-90
2023/01/01 14:15:16;;;;;;;;;;;19.00;63.80;;;;;;5028658;28;19917;-90
2023/01/01 14:17:42;;;;;;;;;;;19.00;63.90;;;;;;5026384;28;19982;-93
2023/01/01 14:20:08;;;;;;;;;;;19.00;64.10;;;;;;5026006;28;20252;-90
2023/01/01 14:22:34;;;;;;;;;;;19.00;63.90;;;;;;5026986;28;20480;-91
2023/01/01 14:25:07;;;;;;;;;;;19.00;63.80;;;;;;5027032;28;19922;-91
2023/01/01 14:27:35;;;;;;;;;;;19.00;63.20;;;;;;5022088;28;19918;-90
2023/01/01 14:30:03;;;;;;;;;;;18.90;63.40;;;;;;5028541;28;20552;-92
2023/01/01 14:32:32;;;;;;;;;;;18.90;63.60;;;;;;5027099;28;19941;-91
2023/01/01 14:34:59;;;;;;;;;;;18.90;63.40;;;;;;5028816;28;19928;-90
2023/01/01 14:37:24;;;;;;;;;;;18.90;63.50;;;;;;5030038;28;19936;-92
2023/01/01 14:40:07;;;;;;;;;;;18.90;63.40;;;;;;5028803;28;19913;-95